createdAt,value
2022-11-24T00:00:36.059Z,29.00
2022-11-24T00:01:36.048Z,30.00
2022-11-24T00:02:36.146Z,24.70
2022-11-24T00:03:36.164Z,29.50
2022-11-24T00:04:36.342Z,31.30
2022-11-24T00:05:36.017Z,34.90
2022-11-24T00:06:36.008Z,31.00
2022-11-24T00:07:36.099Z,28.30
2022-11-24T00:08:35.995Z,34.30
2022-11-24T00:09:35.997Z,33.50
2022-11-24T00:10:35.969Z,31.90
2022-11-24T00:11:35.976Z,28.00
2022-11-24T00:12:35.965Z,29.00
2022-11-24T00:13:35.959Z,39.10
2022-11-24T00:14:36.132Z,33.10
2022-11-24T00:15:36.929Z,30.70
2022-11-24T00:16:35.989Z,31.60
2022-11-24T00:17:35.910Z,29.30
2022-11-24T00:18:35.906Z,31.10
2022-11-24T00:19:35.905Z,33.50
2022-11-24T00:20:35.885Z,34.70
2022-11-24T00:21:35.873Z,33.90
2022-11-24T00:22:35.863Z,32.50
2022-11-24T00:23:35.862Z,36.00
2022-11-24T00:24:36.016Z,34.00
2022-11-24T00:25:35.839Z,42.70
2022-11-24T00:26:35.834Z,33.70
2022-11-24T00:27:35.818Z,36.90
2022-11-24T00:28:36.820Z,35.30
2022-11-24T00:29:35.804Z,37.80
2022-11-24T00:30:35.819Z,34.40
2022-11-24T00:31:35.875Z,34.20
2022-11-24T00:32:35.773Z,33.60
2022-11-24T00:33:35.765Z,33.70
2022-11-24T00:34:35.979Z,36.20
2022-11-24T00:35:35.747Z,34.40
2022-11-24T00:36:35.749Z,31.70
2022-11-24T00:37:35.746Z,37.10
2022-11-24T00:38:35.723Z,34.90
2022-11-24T00:39:35.723Z,36.90
2022-11-24T00:40:35.706Z,37.70
2022-11-24T00:41:35.693Z,42.70
2022-11-24T00:42:35.686Z,36.10
2022-11-24T00:43:35.679Z,34.00
2022-11-24T00:44:35.803Z,36.50
2022-11-24T00:45:35.700Z,34.10
2022-11-24T00:46:35.825Z,32.90
2022-11-24T00:47:35.639Z,37.50
2022-11-24T00:48:35.634Z,35.20
2022-11-24T00:49:35.632Z,35.40
2022-11-24T00:50:35.625Z,34.20
2022-11-24T00:51:35.606Z,38.40
2022-11-24T00:52:35.598Z,32.60
2022-11-24T00:53:35.590Z,35.90
2022-11-24T00:54:35.776Z,34.00
2022-11-24T00:55:35.569Z,31.30
2022-11-24T00:56:35.561Z,40.00
2022-11-24T00:57:35.553Z,33.60
2022-11-24T00:58:35.550Z,33.20
2022-11-24T00:59:35.546Z,32.30
2022-11-24T01:00:35.546Z,31.60
2022-11-24T01:01:35.615Z,29.60
2022-11-24T01:02:35.597Z,26.90
2022-11-24T01:03:35.501Z,34.00
2022-11-24T01:04:35.913Z,32.10
2022-11-24T01:05:35.477Z,31.30
2022-11-24T01:06:35.473Z,35.90
2022-11-24T01:07:35.486Z,32.40
2022-11-24T01:08:35.452Z,30.50
2022-11-24T01:09:35.471Z,29.00
2022-11-24T01:10:35.447Z,30.70
2022-11-24T01:11:35.428Z,30.00
2022-11-24T01:12:35.423Z,29.50
2022-11-24T01:13:35.413Z,29.00
2022-11-24T01:14:35.853Z,27.40
2022-11-24T01:15:35.434Z,29.60
2022-11-24T01:16:35.389Z,27.80
2022-11-24T01:17:35.377Z,27.00
2022-11-24T01:18:35.374Z,27.60
2022-11-24T01:19:35.373Z,27.00
2022-11-24T01:20:35.377Z,26.70
2022-11-24T01:21:35.349Z,25.40
2022-11-24T01:22:35.334Z,28.20
2022-11-24T01:23:35.324Z,24.60
2022-11-24T01:24:35.665Z,26.80
2022-11-24T01:25:35.303Z,28.10
2022-11-24T01:26:35.295Z,28.30
2022-11-24T01:27:35.285Z,28.10
2022-11-24T01:28:35.277Z,31.20
2022-11-24T01:29:35.284Z,25.70
2022-11-24T01:30:35.310Z,28.40
2022-11-24T01:31:35.250Z,27.50
2022-11-24T01:32:35.240Z,29.00
2022-11-24T01:33:35.232Z,25.40
2022-11-24T01:34:35.523Z,27.90
2022-11-24T01:35:35.211Z,26.50
2022-11-24T01:36:35.206Z,32.20
2022-11-24T01:37:35.197Z,30.80
2022-11-24T01:38:35.180Z,30.30
2022-11-24T01:39:36.190Z,29.70
2022-11-24T01:40:35.224Z,27.40
2022-11-24T01:41:35.162Z,29.80
2022-11-24T01:42:35.155Z,31.40
2022-11-24T01:43:35.141Z,25.90
2022-11-24T01:44:35.388Z,26.50
2022-11-24T01:45:35.130Z,28.50
2022-11-24T01:46:35.203Z,31.00
2022-11-24T01:47:35.110Z,27.00
2022-11-24T01:48:35.098Z,30.50
2022-11-24T01:49:35.100Z,28.10
2022-11-24T01:50:35.103Z,29.60
2022-11-24T01:51:35.072Z,30.60
2022-11-24T01:52:35.061Z,30.20
2022-11-24T01:53:35.052Z,34.10
2022-11-24T01:54:35.290Z,35.90
2022-11-24T01:55:35.037Z,30.10
2022-11-24T01:56:35.024Z,32.10
2022-11-24T01:57:35.019Z,32.30
2022-11-24T01:58:35.014Z,31.70
2022-11-24T01:59:35.013Z,31.30
2022-11-24T02:00:34.994Z,31.90
2022-11-24T02:01:35.055Z,31.90
2022-11-24T02:02:35.040Z,30.00
2022-11-24T02:03:34.969Z,26.40
2022-11-24T02:04:35.186Z,27.00
2022-11-24T02:05:34.949Z,26.80
2022-11-24T02:06:34.961Z,26.60
2022-11-24T02:07:34.961Z,24.30
2022-11-24T02:08:34.920Z,25.90
2022-11-24T02:09:34.947Z,28.20
2022-11-24T02:10:34.923Z,25.30
2022-11-24T02:11:34.888Z,23.40
2022-11-24T02:12:34.888Z,23.40
2022-11-24T02:13:34.873Z,26.70
2022-11-24T02:14:35.080Z,24.70
2022-11-24T02:15:34.897Z,31.60
2022-11-24T02:16:34.848Z,32.20
2022-11-24T02:17:34.853Z,31.80
2022-11-24T02:18:34.835Z,23.80
2022-11-24T02:19:34.833Z,26.80
2022-11-24T02:20:34.815Z,28.20
2022-11-24T02:21:34.825Z,25.20
2022-11-24T02:22:34.794Z,25.20
2022-11-24T02:23:34.785Z,36.90
2022-11-24T02:24:35.073Z,30.20
2022-11-24T02:25:34.765Z,24.30
2022-11-24T02:26:34.763Z,27.30
2022-11-24T02:27:34.745Z,28.80
2022-11-24T02:28:34.736Z,28.80
2022-11-24T02:29:34.742Z,32.10
2022-11-24T02:30:34.721Z,25.30
2022-11-24T02:31:34.748Z,24.40
2022-11-24T02:32:34.701Z,24.90
2022-11-24T02:33:34.690Z,25.30
2022-11-24T02:34:35.097Z,24.00
2022-11-24T02:35:34.679Z,30.10
2022-11-24T02:36:34.677Z,26.70
2022-11-24T02:37:34.659Z,25.70
2022-11-24T02:38:34.651Z,25.10
2022-11-24T02:39:34.653Z,25.90
2022-11-24T02:40:34.666Z,23.30
2022-11-24T02:41:34.620Z,24.80
2022-11-24T02:42:34.615Z,22.10
2022-11-24T02:43:34.609Z,22.50
2022-11-24T02:44:34.830Z,25.40
2022-11-24T02:45:34.586Z,23.00
2022-11-24T02:46:34.605Z,24.70
2022-11-24T02:47:34.567Z,22.40
2022-11-24T02:48:34.555Z,25.50
2022-11-24T02:49:34.563Z,24.00
2022-11-24T02:50:34.553Z,23.50
2022-11-24T02:51:34.536Z,26.90
2022-11-24T02:52:34.524Z,28.20
2022-11-24T02:53:34.516Z,27.70
2022-11-24T02:54:34.774Z,25.80
2022-11-24T02:55:34.499Z,24.70
2022-11-24T02:56:34.490Z,27.70
2022-11-24T02:57:34.486Z,27.40
2022-11-24T02:58:34.472Z,25.80
2022-11-24T02:59:34.553Z,24.40
2022-11-24T03:00:34.459Z,23.40
2022-11-24T03:01:34.527Z,25.80
2022-11-24T03:02:34.455Z,25.60
2022-11-24T03:03:35.423Z,24.00
2022-11-24T03:04:34.658Z,22.90
2022-11-24T03:05:34.407Z,23.00
2022-11-24T03:06:34.400Z,23.40
2022-11-24T03:07:34.425Z,21.10
2022-11-24T03:08:34.382Z,25.50
2022-11-24T03:09:34.384Z,23.60
2022-11-24T03:10:34.384Z,23.30
2022-11-24T03:11:34.357Z,21.90
2022-11-24T03:12:34.364Z,25.50
2022-11-24T03:13:34.338Z,23.50
2022-11-24T03:14:34.486Z,24.50
2022-11-24T03:15:34.386Z,25.80
2022-11-24T03:16:34.315Z,24.30
2022-11-24T03:17:34.307Z,23.70
2022-11-24T03:18:34.292Z,26.80
2022-11-24T03:19:34.298Z,24.40
2022-11-24T03:20:34.323Z,23.20
2022-11-24T03:21:34.266Z,22.20
2022-11-24T03:22:34.257Z,23.60
2022-11-24T03:23:34.251Z,23.00
2022-11-24T03:24:34.590Z,24.50
2022-11-24T03:25:34.225Z,25.40
2022-11-24T03:26:34.222Z,24.00
2022-11-24T03:27:34.213Z,23.90
2022-11-24T03:28:34.197Z,22.10
2022-11-24T03:29:35.207Z,21.40
2022-11-24T03:30:34.225Z,23.60
2022-11-24T03:31:34.243Z,24.10
2022-11-24T03:32:34.176Z,24.30
2022-11-24T03:33:34.163Z,26.10
2022-11-24T03:34:34.450Z,25.60
2022-11-24T03:35:34.146Z,27.20
2022-11-24T03:36:34.146Z,22.30
2022-11-24T03:37:34.128Z,21.70
2022-11-24T03:38:34.117Z,24.30
2022-11-24T03:39:34.120Z,26.00
2022-11-24T03:40:34.100Z,26.20
2022-11-24T03:41:34.092Z,23.10
2022-11-24T03:42:34.084Z,23.90
2022-11-24T03:43:37.827Z,27.60
2022-11-24T03:44:35.350Z,25.40
2022-11-24T03:45:49.312Z,25.90
2022-11-24T03:46:38.682Z,25.90
2022-11-24T03:47:34.042Z,25.50
2022-11-24T03:48:34.037Z,24.70
2022-11-24T03:49:34.302Z,25.20
2022-11-24T03:50:34.012Z,25.80
2022-11-24T03:51:34.005Z,22.00
2022-11-24T03:52:33.996Z,22.40
2022-11-24T03:53:34.008Z,26.00
2022-11-24T03:54:34.454Z,24.50
2022-11-24T03:55:33.971Z,25.60
2022-11-24T03:56:33.961Z,24.30
2022-11-24T03:57:33.951Z,24.10
2022-11-24T03:58:33.949Z,25.10
2022-11-24T03:59:33.942Z,25.00
2022-11-24T04:00:33.924Z,24.50
2022-11-24T04:01:33.996Z,22.10
2022-11-24T04:02:33.951Z,23.80
2022-11-24T04:03:33.896Z,23.40
2022-11-24T04:04:33.991Z,22.10
2022-11-24T04:05:33.874Z,25.10
2022-11-24T04:06:33.871Z,20.60
2022-11-24T04:07:33.906Z,22.40
2022-11-24T04:08:33.856Z,22.20
2022-11-24T04:09:33.851Z,23.30
2022-11-24T04:10:33.836Z,20.60
2022-11-24T04:11:33.828Z,21.90
2022-11-24T04:12:33.823Z,20.30
2022-11-24T04:13:33.813Z,19.00
2022-11-24T04:14:34.080Z,19.30
2022-11-24T04:15:33.789Z,19.20
2022-11-24T04:16:33.851Z,18.00
2022-11-24T04:17:33.773Z,24.10
2022-11-24T04:18:33.764Z,19.50
2022-11-24T04:19:33.769Z,21.70
2022-11-24T04:20:33.751Z,21.00
2022-11-24T04:21:33.734Z,19.20
2022-11-24T04:22:33.748Z,20.50
2022-11-24T04:23:33.720Z,20.10
2022-11-24T04:24:34.062Z,22.00
2022-11-24T04:25:33.717Z,21.60
2022-11-24T04:26:33.696Z,20.00
2022-11-24T04:27:33.686Z,21.00
2022-11-24T04:28:33.676Z,21.20
2022-11-24T04:29:33.685Z,19.70
2022-11-24T04:30:33.669Z,18.50
2022-11-24T04:31:33.670Z,21.00
2022-11-24T04:32:33.642Z,21.10
2022-11-24T04:33:33.637Z,17.20
2022-11-24T04:34:33.878Z,17.20
2022-11-24T04:35:33.623Z,19.50
2022-11-24T04:36:33.605Z,20.80
2022-11-24T04:37:33.592Z,19.20
2022-11-24T04:39:25.672Z,20.20
2022-11-24T04:39:34.574Z,21.10
2022-11-24T04:40:33.578Z,18.90
2022-11-24T04:41:33.557Z,18.20
2022-11-24T04:42:33.548Z,19.00
2022-11-24T04:43:39.164Z,19.10
2022-11-24T04:44:36.088Z,20.20
2022-11-24T04:45:33.533Z,20.80
2022-11-24T04:46:33.597Z,22.50
2022-11-24T04:47:33.518Z,19.50
2022-11-24T04:48:33.500Z,20.20
2022-11-24T04:49:33.495Z,19.80
2022-11-24T04:50:33.496Z,19.80
2022-11-24T04:51:33.484Z,18.20
2022-11-24T04:52:33.467Z,21.10
2022-11-24T04:53:33.463Z,18.70
2022-11-24T04:54:33.760Z,20.80
2022-11-24T04:55:33.455Z,17.90
2022-11-24T04:56:33.434Z,22.20
2022-11-24T04:57:33.429Z,18.60
2022-11-24T04:58:33.419Z,18.30
2022-11-24T04:59:33.405Z,18.20
2022-11-24T05:00:33.408Z,19.10
2022-11-24T05:01:33.419Z,18.50
2022-11-24T05:02:33.377Z,20.50
2022-11-24T05:03:33.366Z,19.80
2022-11-24T05:04:33.640Z,20.00
2022-11-24T05:05:33.365Z,23.50
2022-11-24T05:06:33.335Z,20.40
2022-11-24T05:07:33.481Z,18.90
2022-11-24T05:08:33.331Z,20.80
2022-11-24T05:09:58.164Z,18.60
2022-11-24T05:10:35.376Z,18.90
2022-11-24T05:11:33.294Z,18.10
2022-11-24T05:12:33.285Z,19.80
2022-11-24T05:13:33.270Z,18.30
2022-11-24T05:14:33.559Z,20.50
2022-11-24T05:15:33.271Z,20.90
2022-11-24T05:16:33.274Z,22.90
2022-11-24T05:17:33.269Z,18.80
2022-11-24T05:18:33.235Z,18.30
2022-11-24T05:19:33.221Z,19.10
2022-11-24T05:20:33.231Z,18.50
2022-11-24T05:21:33.209Z,18.90
2022-11-24T05:22:33.198Z,19.60
2022-11-24T05:23:33.185Z,19.70
2022-11-24T05:24:33.523Z,21.50
2022-11-24T05:25:33.197Z,20.30
2022-11-24T05:26:33.164Z,18.30
2022-11-24T05:27:33.156Z,18.60
2022-11-24T05:28:33.143Z,19.50
2022-11-24T05:29:33.135Z,18.70
2022-11-24T05:30:33.145Z,19.70
2022-11-24T05:31:33.149Z,19.70
2022-11-24T05:32:33.116Z,17.70
2022-11-24T05:33:33.105Z,19.50
2022-11-24T05:34:33.302Z,17.30
2022-11-24T05:35:33.097Z,17.30
2022-11-24T05:36:33.074Z,19.00
2022-11-24T05:37:33.067Z,21.00
2022-11-24T05:38:33.076Z,20.50
2022-11-24T05:39:33.046Z,18.00
2022-11-24T05:40:33.054Z,19.60
2022-11-24T05:41:33.029Z,21.80
2022-11-24T05:42:33.027Z,18.40
2022-11-24T05:43:33.022Z,19.00
2022-11-24T05:44:33.269Z,19.80
2022-11-24T05:45:33.006Z,20.90
2022-11-24T05:46:33.042Z,18.40
2022-11-24T05:47:32.980Z,20.90
2022-11-24T05:48:32.967Z,19.60
2022-11-24T05:49:32.958Z,19.20
2022-11-24T05:50:32.955Z,21.80
2022-11-24T05:51:32.932Z,19.60
2022-11-24T05:52:32.926Z,19.90
2022-11-24T05:53:32.912Z,17.90
2022-11-24T05:54:33.185Z,19.30
2022-11-24T05:55:32.908Z,21.40
2022-11-24T05:56:32.896Z,19.40
2022-11-24T05:57:32.879Z,22.40
2022-11-24T05:58:32.875Z,18.00
2022-11-24T05:59:32.864Z,22.70
2022-11-24T06:00:32.868Z,25.30
2022-11-24T06:01:32.869Z,25.70
2022-11-24T06:02:32.965Z,22.90
2022-11-24T06:03:32.830Z,22.80
2022-11-24T06:04:33.283Z,23.90
2022-11-24T06:05:32.820Z,24.00
2022-11-24T06:06:32.804Z,20.50
2022-11-24T06:07:32.865Z,26.20
2022-11-24T06:08:32.783Z,23.60
2022-11-24T06:09:32.776Z,25.10
2022-11-24T06:10:32.777Z,27.10
2022-11-24T06:11:32.752Z,24.50
2022-11-24T06:12:32.747Z,23.20
2022-11-24T06:13:32.819Z,22.10
2022-11-24T06:14:33.043Z,21.70
2022-11-24T06:15:32.727Z,24.50
2022-11-24T06:16:32.727Z,26.30
2022-11-24T06:17:33.701Z,27.90
2022-11-24T06:18:32.689Z,24.40
2022-11-24T06:19:32.681Z,23.50
2022-11-24T06:20:33.235Z,21.50
2022-11-24T06:21:33.663Z,25.10
2022-11-24T06:22:32.652Z,25.80
2022-11-24T06:23:32.644Z,24.60
2022-11-24T06:24:32.944Z,23.90
2022-11-24T06:25:32.638Z,25.10
2022-11-24T06:26:32.618Z,21.20
2022-11-24T06:27:32.611Z,22.10
2022-11-24T06:28:32.601Z,24.10
2022-11-24T06:29:32.593Z,23.40
2022-11-24T06:30:32.614Z,21.50
2022-11-24T06:31:32.637Z,25.80
2022-11-24T06:32:32.556Z,23.80
2022-11-24T06:33:32.556Z,20.80
2022-11-24T06:34:33.017Z,24.10
2022-11-24T06:35:32.558Z,22.10
2022-11-24T06:36:32.536Z,24.90
2022-11-24T06:37:32.518Z,24.90
2022-11-24T06:38:32.510Z,32.10
2022-11-24T06:39:32.498Z,30.40
2022-11-24T06:40:32.502Z,28.80
2022-11-24T06:41:32.484Z,35.80
2022-11-24T06:42:32.471Z,30.20
2022-11-24T06:43:32.466Z,33.80
2022-11-24T06:44:32.944Z,30.70
2022-11-24T06:45:32.523Z,28.80
2022-11-24T06:46:32.441Z,30.10
2022-11-24T06:47:32.429Z,29.70
2022-11-24T06:48:32.421Z,28.80
2022-11-24T06:49:32.417Z,25.40
2022-11-24T06:50:33.856Z,29.50
2022-11-24T06:51:33.405Z,27.60
2022-11-24T06:52:32.492Z,29.30
2022-11-24T06:53:32.375Z,26.00
2022-11-24T06:54:32.802Z,26.70
2022-11-24T06:55:32.385Z,26.90
2022-11-24T06:56:32.369Z,28.10
2022-11-24T06:57:32.350Z,26.50
2022-11-24T06:58:32.383Z,24.60
2022-11-24T06:59:32.325Z,26.00
2022-11-24T07:00:32.330Z,27.60
2022-11-24T07:01:32.378Z,26.90
2022-11-24T07:02:32.482Z,28.40
2022-11-24T07:03:32.435Z,27.80
2022-11-24T07:04:32.768Z,24.20
2022-11-24T07:05:32.285Z,25.90
2022-11-24T07:06:32.269Z,27.00
2022-11-24T07:07:32.329Z,24.70
2022-11-24T07:08:32.262Z,24.20
2022-11-24T07:09:32.241Z,23.70
2022-11-24T07:10:32.248Z,23.10
2022-11-24T07:11:32.259Z,22.60
2022-11-24T07:12:32.223Z,22.00
2022-11-24T07:13:32.217Z,18.70
2022-11-24T07:14:32.424Z,19.50
2022-11-24T07:15:32.218Z,20.80
2022-11-24T07:16:32.241Z,20.80
2022-11-24T07:17:32.177Z,22.60
2022-11-24T07:18:32.166Z,22.10
2022-11-24T07:19:32.159Z,22.40
2022-11-24T07:20:32.149Z,22.60
2022-11-24T07:21:32.154Z,20.80
2022-11-24T07:22:32.233Z,20.60
2022-11-24T07:23:32.127Z,25.60
2022-11-24T07:24:32.445Z,25.40
2022-11-24T07:25:32.152Z,21.80
2022-11-24T07:26:32.105Z,24.70
2022-11-24T07:27:32.089Z,19.30
2022-11-24T07:28:32.081Z,22.70
2022-11-24T07:29:32.154Z,22.40
2022-11-24T07:30:32.071Z,18.40
2022-11-24T07:31:32.109Z,18.60
2022-11-24T07:32:32.180Z,20.50
2022-11-24T07:33:32.036Z,18.60
2022-11-24T07:34:32.371Z,16.70
2022-11-24T07:35:32.186Z,15.70
2022-11-24T07:36:32.192Z,16.10
2022-11-24T07:37:32.152Z,14.00
2022-11-24T07:38:32.027Z,15.30
2022-11-24T07:39:32.016Z,18.10
2022-11-24T07:40:31.979Z,16.40
2022-11-24T07:41:31.978Z,20.20
2022-11-24T07:42:31.960Z,19.40
2022-11-24T07:43:31.968Z,18.80
2022-11-24T07:44:32.069Z,20.50
2022-11-24T07:45:31.991Z,16.80
2022-11-24T07:46:31.934Z,14.80
2022-11-24T07:47:31.919Z,18.00
2022-11-24T07:48:31.898Z,17.70
2022-11-24T07:49:32.896Z,16.60
2022-11-24T07:50:31.896Z,16.30
2022-11-24T07:51:31.891Z,17.30
2022-11-24T07:52:31.873Z,18.80
2022-11-24T07:53:31.863Z,16.20
2022-11-24T07:54:32.038Z,16.10
2022-11-24T07:55:31.852Z,16.60
2022-11-24T07:56:31.845Z,14.00
2022-11-24T07:57:31.846Z,15.60
2022-11-24T07:58:32.982Z,14.10
2022-11-24T07:59:32.814Z,16.60
2022-11-24T08:00:31.801Z,14.80
2022-11-24T08:01:31.908Z,14.70
2022-11-24T08:02:31.780Z,15.40
2022-11-24T08:03:31.966Z,16.30
2022-11-24T08:04:31.935Z,16.10
2022-11-24T08:05:31.758Z,15.40
2022-11-24T08:06:40.697Z,15.90
2022-11-24T08:07:33.784Z,15.70
2022-11-24T08:08:31.734Z,16.90
2022-11-24T08:09:31.724Z,18.90
2022-11-24T08:10:31.712Z,15.80
2022-11-24T08:11:31.762Z,16.40
2022-11-24T08:12:31.822Z,18.30
2022-11-24T08:13:31.684Z,18.10
2022-11-24T08:14:31.946Z,15.80
2022-11-24T08:15:31.826Z,18.80
2022-11-24T08:16:31.794Z,18.80
2022-11-24T08:17:31.716Z,15.90
2022-11-24T08:18:31.654Z,20.60
2022-11-24T08:19:31.634Z,19.40
2022-11-24T08:20:31.622Z,18.80
2022-11-24T08:21:31.618Z,17.40
2022-11-24T08:22:31.604Z,15.70
2022-11-24T08:23:31.595Z,17.20
2022-11-24T08:24:31.939Z,17.00
2022-11-24T08:25:31.595Z,16.80
2022-11-24T08:26:31.576Z,16.50
2022-11-24T08:27:31.563Z,18.50
2022-11-24T08:28:31.638Z,19.20
2022-11-24T08:29:31.543Z,18.60
2022-11-24T08:30:31.535Z,17.30
2022-11-24T08:31:31.586Z,18.80
2022-11-24T08:32:31.523Z,19.20
2022-11-24T08:33:31.506Z,16.00
2022-11-24T08:34:31.770Z,17.90
2022-11-24T08:35:31.497Z,17.30
2022-11-24T08:36:31.495Z,19.80
2022-11-24T08:37:31.472Z,18.40
2022-11-24T08:38:31.462Z,17.00
2022-11-24T08:39:31.486Z,16.70
2022-11-24T08:40:31.453Z,18.10
2022-11-24T08:41:31.468Z,20.00
2022-11-24T08:42:31.426Z,19.70
2022-11-24T08:43:31.419Z,17.60
2022-11-24T08:44:31.468Z,22.00
2022-11-24T08:45:34.305Z,24.90
2022-11-24T08:46:32.489Z,25.30
2022-11-24T08:47:31.385Z,25.90
2022-11-24T08:48:31.375Z,18.30
2022-11-24T08:49:31.363Z,21.00
2022-11-24T08:50:31.506Z,19.50
2022-11-24T08:51:31.398Z,19.20
2022-11-24T08:52:31.339Z,20.80
2022-11-24T08:53:31.343Z,21.50
2022-11-24T08:54:31.417Z,17.80
2022-11-24T08:55:31.306Z,19.80
2022-11-24T08:56:31.313Z,19.70
2022-11-24T08:57:31.291Z,19.40
2022-11-24T08:58:31.290Z,20.20
2022-11-24T08:59:31.410Z,20.80
2022-11-24T09:00:31.261Z,17.90
2022-11-24T09:01:31.356Z,20.10
2022-11-24T09:02:31.239Z,19.10
2022-11-24T09:03:31.232Z,18.80
2022-11-24T09:04:31.268Z,18.90
2022-11-24T09:06:00.023Z,22.00
2022-11-24T09:06:33.216Z,18.60
2022-11-24T09:07:31.277Z,18.20
2022-11-24T09:08:31.179Z,18.00
2022-11-24T09:09:31.173Z,19.90
2022-11-24T09:10:31.165Z,19.10
2022-11-24T09:11:31.163Z,19.50
2022-11-24T09:12:31.146Z,18.20
2022-11-24T09:13:31.139Z,17.90
2022-11-24T09:14:31.379Z,19.40
2022-11-24T09:15:31.113Z,18.80
2022-11-24T09:16:31.155Z,21.30
2022-11-24T09:17:31.104Z,23.50
2022-11-24T09:18:31.088Z,22.60
2022-11-24T09:19:31.170Z,20.70
2022-11-24T09:20:31.066Z,19.60
2022-11-24T09:21:31.075Z,20.10
2022-11-24T09:22:31.045Z,17.40
2022-11-24T09:23:31.038Z,15.90
2022-11-24T09:24:31.024Z,15.40
2022-11-24T09:25:31.046Z,15.50
2022-11-24T09:26:31.026Z,13.80
2022-11-24T09:27:30.996Z,11.40
2022-11-24T09:28:30.994Z,11.80
2022-11-24T09:29:31.001Z,11.90
2022-11-24T09:30:31.055Z,11.20
2022-11-24T09:31:31.035Z,10.70
2022-11-24T09:32:30.949Z,10.10
2022-11-24T09:33:30.948Z,9.60
2022-11-24T09:34:30.938Z,9.70
2022-11-24T09:35:30.925Z,9.70
2022-11-24T09:36:30.926Z,9.80
2022-11-24T09:37:32.804Z,9.90
2022-11-24T09:38:31.891Z,9.70
2022-11-24T09:39:30.889Z,10.00
2022-11-24T09:40:30.878Z,9.10
2022-11-24T09:41:30.876Z,8.60
2022-11-24T09:42:30.866Z,9.50
2022-11-24T09:43:30.876Z,9.60
2022-11-24T09:44:30.843Z,8.90
2022-11-24T09:46:03.333Z,8.60
2022-11-24T09:46:32.955Z,8.80
2022-11-24T09:47:30.921Z,8.60
2022-11-24T09:48:30.801Z,8.60
2022-11-24T09:49:30.798Z,8.70
2022-11-24T09:50:30.783Z,8.20
2022-11-24T09:51:30.782Z,8.90
2022-11-24T09:52:30.762Z,8.80
2022-11-24T09:53:30.750Z,9.20
2022-11-24T09:54:30.744Z,8.90
2022-11-24T09:55:30.731Z,8.50
2022-11-24T09:56:30.730Z,8.10
2022-11-24T09:57:35.808Z,8.50
2022-11-24T09:58:32.708Z,7.70
2022-11-24T09:59:30.688Z,8.20
2022-11-24T10:00:30.666Z,7.30
2022-11-24T10:01:31.747Z,8.60
2022-11-24T10:02:30.657Z,8.20
2022-11-24T10:03:30.647Z,7.90
2022-11-24T10:04:30.805Z,7.60
2022-11-24T10:05:30.633Z,7.70
2022-11-24T10:06:30.639Z,7.70
2022-11-24T10:07:30.682Z,8.40
2022-11-24T10:08:30.607Z,7.60
2022-11-24T10:09:30.599Z,8.20
2022-11-24T10:10:30.598Z,7.70
2022-11-24T10:11:30.591Z,7.60
2022-11-24T10:12:30.572Z,8.40
2022-11-24T10:13:30.577Z,7.80
2022-11-24T10:14:30.612Z,7.40
2022-11-24T10:15:30.596Z,8.40
2022-11-24T10:16:30.587Z,7.60
2022-11-24T10:17:30.525Z,7.20
2022-11-24T10:18:30.519Z,8.30
2022-11-24T10:19:37.019Z,7.40
2022-11-24T10:20:32.500Z,7.80
2022-11-24T10:21:30.502Z,6.60
2022-11-24T10:22:30.479Z,6.50
2022-11-24T10:23:31.314Z,6.70
2022-11-24T10:24:30.456Z,7.00
2022-11-24T10:25:30.449Z,6.20
2022-11-24T10:26:30.446Z,5.90
2022-11-24T10:27:30.427Z,6.10
2022-11-24T10:28:30.416Z,5.70
2022-11-24T10:29:30.408Z,5.70
2022-11-24T10:30:30.396Z,5.00
2022-11-24T10:31:30.464Z,5.00
2022-11-24T10:32:30.377Z,5.50
2022-11-24T10:33:31.112Z,6.00
2022-11-24T10:34:31.397Z,11.60
2022-11-24T10:35:30.379Z,8.20
2022-11-24T10:36:30.355Z,5.10
2022-11-24T10:37:30.413Z,5.00
2022-11-24T10:38:30.319Z,5.00
2022-11-24T10:39:30.312Z,4.80
2022-11-24T10:40:56.007Z,4.70
2022-11-24T10:41:32.305Z,4.60
2022-11-24T10:42:30.281Z,4.90
2022-11-24T10:43:30.268Z,4.50
2022-11-24T10:44:31.342Z,4.90
2022-11-24T10:45:30.251Z,5.10
2022-11-24T10:46:33.661Z,4.10
2022-11-24T10:47:32.237Z,4.30
2022-11-24T10:48:30.225Z,3.70
2022-11-24T10:49:30.324Z,4.10
2022-11-24T10:50:30.206Z,4.00
2022-11-24T10:51:30.211Z,4.50
2022-11-24T10:52:30.181Z,4.00
2022-11-24T10:53:30.198Z,3.90
2022-11-24T10:54:30.177Z,4.30
2022-11-24T10:55:30.199Z,3.70
2022-11-24T10:56:30.159Z,4.20
2022-11-24T10:57:30.179Z,3.80
2022-11-24T10:58:35.869Z,3.70
2022-11-24T10:59:32.560Z,3.30
2022-11-24T11:00:30.123Z,3.70
2022-11-24T11:01:30.253Z,3.60
2022-11-24T11:02:30.237Z,3.60
2022-11-24T11:03:30.122Z,3.40
2022-11-24T11:04:30.078Z,3.80
2022-11-24T11:05:30.070Z,3.70
2022-11-24T11:06:30.093Z,3.30
2022-11-24T11:07:30.100Z,3.60
2022-11-24T11:08:30.045Z,3.70
2022-11-24T11:09:30.029Z,3.40
2022-11-24T11:10:30.024Z,3.30
2022-11-24T11:11:30.100Z,4.00
2022-11-24T11:12:44.993Z,4.00
2022-11-24T11:13:31.996Z,3.70
2022-11-24T11:14:29.982Z,3.90
2022-11-24T11:15:30.107Z,3.60
2022-11-24T11:16:30.016Z,4.10
2022-11-24T11:17:29.987Z,3.70
2022-11-24T11:18:29.969Z,3.50
2022-11-24T11:20:31.931Z,4.10
2022-11-24T11:21:29.982Z,4.30
2022-11-24T11:22:29.948Z,3.70
2022-11-24T11:23:29.969Z,3.60
2022-11-24T11:24:29.897Z,4.50
2022-11-24T11:25:29.937Z,3.80
2022-11-24T11:26:29.968Z,3.70
2022-11-24T11:27:29.866Z,3.90
2022-11-24T11:28:29.903Z,4.00
2022-11-24T11:31:31.834Z,3.60
2022-11-24T11:34:31.793Z,3.60
2022-11-24T11:35:29.776Z,3.70
2022-11-24T11:36:29.768Z,3.60
2022-11-24T11:37:29.767Z,3.60
2022-11-24T11:38:29.760Z,3.70
2022-11-24T11:39:29.736Z,3.10
2022-11-24T11:40:29.749Z,3.50
2022-11-24T11:41:29.742Z,3.40
2022-11-24T11:43:00.823Z,3.30
2022-11-24T11:43:31.699Z,3.70
2022-11-24T11:44:29.691Z,3.50
2022-11-24T11:45:29.688Z,3.50
2022-11-24T11:46:29.703Z,3.70
2022-11-24T11:47:29.658Z,3.60
2022-11-24T11:48:32.484Z,3.40
2022-11-24T11:49:30.629Z,3.40
2022-11-24T11:50:29.640Z,3.00
2022-11-24T11:51:29.795Z,3.30
2022-11-24T11:52:29.619Z,3.20
2022-11-24T11:53:29.591Z,3.40
2022-11-24T11:54:29.580Z,3.00
2022-11-24T11:55:29.569Z,3.00
2022-11-24T11:56:29.570Z,3.10
2022-11-24T11:57:29.564Z,3.10
2022-11-24T11:58:29.556Z,3.60
2022-11-24T11:59:29.537Z,3.10
2022-11-24T12:00:29.526Z,3.10
2022-11-24T12:01:29.516Z,3.40
2022-11-24T12:02:29.665Z,3.50
2022-11-24T12:03:29.594Z,3.90
2022-11-24T12:04:29.496Z,4.50
2022-11-24T12:05:29.481Z,4.00
2022-11-24T12:06:29.471Z,3.90
2022-11-24T12:07:29.516Z,3.40
2022-11-24T12:08:31.321Z,3.30
2022-11-24T12:09:30.445Z,3.10
2022-11-24T12:10:29.433Z,2.90
2022-11-24T12:11:29.432Z,2.90
2022-11-24T12:12:29.434Z,3.10
2022-11-24T12:13:29.412Z,3.40
2022-11-24T12:14:29.402Z,3.10
2022-11-24T12:15:29.393Z,3.10
2022-11-24T12:16:29.447Z,2.90
2022-11-24T12:17:29.379Z,2.90
2022-11-24T12:18:56.572Z,3.00
2022-11-24T12:19:31.436Z,3.00
2022-11-24T12:20:29.339Z,3.10
2022-11-24T12:21:29.464Z,3.00
2022-11-24T12:22:29.330Z,2.50
2022-11-24T12:23:29.295Z,3.00
2022-11-24T12:24:30.343Z,2.50
2022-11-24T12:25:29.283Z,3.00
2022-11-24T12:26:29.277Z,2.50
2022-11-24T12:27:29.283Z,2.50
2022-11-24T12:28:29.289Z,2.50
2022-11-24T12:29:29.240Z,2.30
2022-11-24T12:30:30.245Z,2.10
2022-11-24T12:31:29.261Z,2.20
2022-11-24T12:32:29.227Z,2.30
2022-11-24T12:33:29.209Z,2.30
2022-11-24T12:34:29.241Z,2.20
2022-11-24T12:35:29.188Z,2.30
2022-11-24T12:36:29.175Z,2.30
2022-11-24T12:37:29.178Z,2.30
2022-11-24T12:38:29.157Z,2.10
2022-11-24T12:39:29.153Z,2.40
2022-11-24T12:40:29.142Z,2.10
2022-11-24T12:41:44.448Z,2.20
2022-11-24T12:42:31.126Z,2.40
2022-11-24T12:43:29.112Z,2.00
2022-11-24T12:44:29.092Z,2.00
2022-11-24T12:45:29.132Z,2.10
2022-11-24T12:46:29.130Z,2.30
2022-11-24T12:47:29.141Z,2.10
2022-11-24T12:48:29.079Z,2.20
2022-11-24T12:49:29.044Z,2.00
2022-11-24T12:50:29.065Z,2.10
2022-11-24T12:51:29.024Z,2.10
2022-11-24T12:52:29.027Z,2.10
2022-11-24T12:53:28.994Z,2.10
2022-11-24T12:54:29.997Z,2.10
2022-11-24T12:55:28.985Z,2.30
2022-11-24T12:56:28.974Z,2.40
2022-11-24T12:57:28.973Z,2.20
2022-11-24T12:58:28.952Z,2.10
2022-11-24T12:59:28.949Z,2.20
2022-11-24T13:00:28.933Z,1.90
2022-11-24T13:01:28.990Z,2.00
2022-11-24T13:02:29.092Z,1.90
2022-11-24T13:03:28.910Z,1.80
2022-11-24T13:04:28.895Z,2.00